Time;durP1;ratioP1;P1;durP2;ratioP2;P2;SDS_P1;SDS_P2;PMS_P1;PMS_P2;Temp;Humidity;BMP_temperature;BMP_pressure;BME280_temperature;BME280_humidity;BME280_pressure;Samples;Min_cycle;Max_cycle;Signal;HPM_P1;HPM_P2
2022/10/08 00:01:20;;;;;;;;;;;28.70;99.90;;;;;;5041311;22;19921;-51
2022/10/08 00:03:46;;;;;;;;;;;28.70;99.90;;;;;;5031565;28;19912;-49
2022/10/08 00:06:12;;;;;;;;;;;28.70;99.90;;;;;;5031496;28;19905;-50
2022/10/08 00:08:40;;;;;;;;;;;28.70;99.90;;;;;;5031545;28;19928;-50
2022/10/08 00:11:08;;;;;;;;;;;28.60;99.90;;;;;;5031354;28;20339;-50
2022/10/08 00:13:40;;;;;;;;;;;28.60;99.90;;;;;;5031327;28;19912;-50
2022/10/08 00:16:11;;;;;;;;;;;28.60;99.90;;;;;;5031449;28;20001;-50
2022/10/08 00:18:38;;;;;;;;;;;28.60;99.90;;;;;;5031708;28;20348;-50
2022/10/08 00:21:15;;;;;;;;;;;28.60;99.90;;;;;;5035395;28;19905;-50
2022/10/08 00:23:41;;;;;;;;;;;28.60;99.90;;;;;;5035363;28;20438;-50
2022/10/08 00:26:07;;;;;;;;;;;28.60;99.90;;;;;;5035167;28;19905;-50
2022/10/08 00:28:33;;;;;;;;;;;28.60;99.90;;;;;;5035417;28;19905;-50
2022/10/08 00:31:05;;;;;;;;;;;28.60;99.90;;;;;;5033928;28;19913;-50
2022/10/08 00:33:30;;;;;;;;;;;28.50;99.90;;;;;;5035260;28;19905;-50
2022/10/08 00:35:59;;;;;;;;;;;28.50;99.90;;;;;;5035175;28;19905;-51
2022/10/08 00:38:25;;;;;;;;;;;28.50;99.90;;;;;;5035041;28;19920;-51
2022/10/08 00:40:50;;;;;;;;;;;28.50;99.90;;;;;;5035028;28;20007;-51
2022/10/08 00:43:16;;;;;;;;;;;28.50;99.90;;;;;;5034911;28;19905;-51
2022/10/08 00:45:43;;;;;;;;;;;28.50;99.90;;;;;;5034956;28;19905;-50
2022/10/08 00:48:11;;;;;;;;;;;28.50;99.90;;;;;;5034920;28;19913;-50
2022/10/08 00:50:39;;;;;;;;;;;28.50;99.90;;;;;;5034831;28;20315;-51
2022/10/08 00:53:06;;;;;;;;;;;28.50;99.90;;;;;;5050287;28;19912;-51
2022/10/08 00:55:32;;;;;;;;;;;28.50;99.90;;;;;;5034928;28;19905;-51
2022/10/08 00:58:01;;;;;;;;;;;28.40;99.90;;;;;;5034765;28;19956;-51
2022/10/08 01:00:27;;;;;;;;;;;28.40;99.90;;;;;;5047486;22;19925;-57
2022/10/08 01:02:53;;;;;;;;;;;28.40;99.90;;;;;;5034679;28;19905;-59
2022/10/08 01:05:29;;;;;;;;;;;28.40;99.90;;;;;;5033380;28;19905;-59
2022/10/08 01:08:18;;;;;;;;;;;28.40;99.90;;;;;;5034682;28;19996;-59
2022/10/08 01:10:43;;;;;;;;;;;28.40;99.90;;;;;;5031178;28;20335;-60
2022/10/08 01:13:23;;;;;;;;;;;28.40;99.90;;;;;;5034676;28;19959;-60
2022/10/08 01:15:48;;;;;;;;;;;28.40;99.90;;;;;;5034350;28;19912;-58
2022/10/08 01:18:33;;;;;;;;;;;28.30;99.90;;;;;;5034465;28;19909;-59
2022/10/08 01:20:58;;;;;;;;;;;28.30;99.90;;;;;;5034418;28;19909;-59
2022/10/08 01:23:27;;;;;;;;;;;28.30;99.90;;;;;;5049612;28;19911;-59
2022/10/08 01:25:55;;;;;;;;;;;28.30;99.90;;;;;;5034201;28;19905;-58
2022/10/08 01:28:37;;;;;;;;;;;28.30;99.90;;;;;;5034344;28;19940;-57
2022/10/08 01:31:07;;;;;;;;;;;28.30;99.90;;;;;;5033668;28;19913;-58
2022/10/08 01:33:33;;;;;;;;;;;28.30;99.90;;;;;;5034367;28;19952;-57
2022/10/08 01:36:00;;;;;;;;;;;28.30;99.90;;;;;;5034139;28;19905;-58
2022/10/08 01:38:28;;;;;;;;;;;28.30;99.90;;;;;;5034071;28;19959;-59
2022/10/08 01:40:57;;;;;;;;;;;28.30;99.90;;;;;;5033972;28;19920;-57
2022/10/08 01:43:26;;;;;;;;;;;28.20;99.90;;;;;;5033980;28;20408;-57
2022/10/08 01:45:58;;;;;;;;;;;28.20;99.90;;;;;;5033866;28;19909;-59
2022/10/08 01:48:27;;;;;;;;;;;28.20;99.90;;;;;;5033782;28;19948;-57
2022/10/08 01:51:01;;;;;;;;;;;28.20;99.90;;;;;;5033507;28;19913;-58
2022/10/08 01:53:32;;;;;;;;;;;28.20;99.90;;;;;;5033708;28;19995;-58
2022/10/08 01:56:00;;;;;;;;;;;28.20;99.90;;;;;;5033604;28;19912;-58
2022/10/08 01:58:35;;;;;;;;;;;28.20;99.90;;;;;;5033831;28;19905;-57
2022/10/08 02:01:12;;;;;;;;;;;28.20;99.90;;;;;;5034075;28;19917;-57
2022/10/08 02:04:31;;;;;;;;;;;28.20;99.90;;;;;;5032400;28;20269;-57
2022/10/08 02:06:25;;;;;;;;;;;28.20;99.90;;;;;;5033459;28;19905;-57
2022/10/08 02:08:50;;;;;;;;;;;28.10;99.90;;;;;;5033485;28;19916;-57
2022/10/08 02:11:16;;;;;;;;;;;28.10;99.90;;;;;;5033445;28;20011;-57
2022/10/08 02:13:42;;;;;;;;;;;28.10;99.90;;;;;;5048776;28;19962;-57
2022/10/08 02:16:10;;;;;;;;;;;28.10;99.90;;;;;;5033573;28;19912;-57
2022/10/08 02:18:46;;;;;;;;;;;28.10;99.90;;;;;;5033715;28;19912;-57
2022/10/08 02:21:18;;;;;;;;;;;28.10;99.90;;;;;;5031985;28;19912;-57
2022/10/08 02:23:47;;;;;;;;;;;28.10;99.90;;;;;;5033388;28;19905;-58
2022/10/08 02:26:15;;;;;;;;;;;28.10;99.90;;;;;;5033027;28;20349;-57
2022/10/08 02:28:59;;;;;;;;;;;28.00;99.90;;;;;;5033066;28;20343;-57
2022/10/08 02:31:34;;;;;;;;;;;28.00;99.90;;;;;;5032851;28;19919;-58
2022/10/08 02:34:04;;;;;;;;;;;28.00;99.90;;;;;;5032961;28;19905;-59
2022/10/08 02:36:33;;;;;;;;;;;28.00;99.90;;;;;;5032928;28;19905;-57
2022/10/08 02:39:02;;;;;;;;;;;28.00;99.90;;;;;;5032877;28;19967;-57
2022/10/08 02:41:33;;;;;;;;;;;28.00;99.90;;;;;;5032703;28;20355;-57
2022/10/08 02:44:01;;;;;;;;;;;28.00;99.90;;;;;;5031883;28;19905;-58
2022/10/08 02:46:28;;;;;;;;;;;28.00;99.90;;;;;;5032815;28;19905;-57
2022/10/08 02:48:58;;;;;;;;;;;28.00;99.90;;;;;;5032613;28;19968;-58
2022/10/08 02:51:26;;;;;;;;;;;28.00;99.90;;;;;;5032466;28;19979;-57
2022/10/08 02:53:52;;;;;;;;;;;28.00;99.90;;;;;;5032677;28;19905;-58
2022/10/08 02:56:24;;;;;;;;;;;28.00;99.90;;;;;;5032677;28;19916;-57
2022/10/08 02:58:50;;;;;;;;;;;28.00;99.90;;;;;;5032499;28;19992;-58
2022/10/08 03:01:44;;;;;;;;;;;27.90;99.90;;;;;;5032851;28;19987;-58
2022/10/08 03:04:16;;;;;;;;;;;27.90;99.90;;;;;;5013109;28;20404;-57
2022/10/08 03:06:42;;;;;;;;;;;27.90;99.90;;;;;;5032529;28;19975;-57
2022/10/08 03:09:10;;;;;;;;;;;27.90;99.90;;;;;;5032428;28;19951;-57
2022/10/08 03:11:36;;;;;;;;;;;27.90;99.90;;;;;;5032250;28;20284;-58
2022/10/08 03:14:03;;;;;;;;;;;27.90;99.90;;;;;;5032098;28;19905;-57
2022/10/08 03:16:36;;;;;;;;;;;27.90;99.90;;;;;;5032205;28;19908;-58
2022/10/08 03:19:02;;;;;;;;;;;27.90;99.90;;;;;;5032153;28;19905;-56
2022/10/08 03:21:29;;;;;;;;;;;27.90;99.90;;;;;;5032180;28;19995;-58
2022/10/08 03:23:54;;;;;;;;;;;27.90;99.90;;;;;;5032171;28;19905;-57
2022/10/08 03:26:20;;;;;;;;;;;27.90;99.90;;;;;;5032066;28;19909;-57
2022/10/08 03:28:45;;;;;;;;;;;27.80;99.90;;;;;;5031920;28;19951;-57
2022/10/08 03:31:11;;;;;;;;;;;27.90;99.90;;;;;;5032351;28;19913;-57
2022/10/08 03:33:37;;;;;;;;;;;27.80;99.90;;;;;;5047275;28;20292;-58
2022/10/08 03:36:02;;;;;;;;;;;27.80;99.90;;;;;;5032020;28;20361;-58
2022/10/08 03:38:28;;;;;;;;;;;27.80;99.90;;;;;;5032001;28;19906;-57
2022/10/08 03:40:57;;;;;;;;;;;27.80;99.90;;;;;;5031783;28;20463;-59
2022/10/08 03:43:23;;;;;;;;;;;27.80;99.90;;;;;;5030689;28;19952;-58
2022/10/08 03:45:52;;;;;;;;;;;27.80;99.90;;;;;;5031860;28;19951;-58
2022/10/08 03:48:19;;;;;;;;;;;27.80;99.90;;;;;;5031904;28;19997;-57
2022/10/08 03:50:51;;;;;;;;;;;27.80;99.90;;;;;;5031935;28;19960;-58
2022/10/08 03:53:16;;;;;;;;;;;27.70;99.90;;;;;;5031899;28;19905;-58
2022/10/08 03:55:42;;;;;;;;;;;27.70;99.90;;;;;;5038515;28;19912;-58
2022/10/08 03:58:07;;;;;;;;;;;27.70;99.90;;;;;;5038340;28;19905;-58
2022/10/08 04:00:33;;;;;;;;;;;27.70;99.90;;;;;;5039181;28;20273;-58
2022/10/08 04:02:58;;;;;;;;;;;27.70;99.90;;;;;;5038247;28;20007;-58
2022/10/08 04:05:24;;;;;;;;;;;27.70;99.90;;;;;;5038235;28;20368;-58
2022/10/08 04:07:50;;;;;;;;;;;27.70;99.90;;;;;;5038353;28;19952;-58
2022/10/08 04:10:16;;;;;;;;;;;27.60;99.90;;;;;;5038361;28;19916;-59
2022/10/08 04:12:42;;;;;;;;;;;27.60;99.90;;;;;;5038303;28;20283;-59
2022/10/08 04:15:07;;;;;;;;;;;27.70;99.90;;;;;;5038279;28;19909;-59
2022/10/08 04:17:33;;;;;;;;;;;27.60;99.90;;;;;;5038335;28;19905;-59
2022/10/08 04:19:59;;;;;;;;;;;27.60;99.90;;;;;;5038261;28;19905;-58
2022/10/08 04:22:24;;;;;;;;;;;27.60;99.90;;;;;;5038160;28;19928;-58
2022/10/08 04:24:50;;;;;;;;;;;27.60;99.90;;;;;;5038108;28;20257;-57
2022/10/08 04:27:16;;;;;;;;;;;27.60;99.90;;;;;;5038219;28;20134;-58
2022/10/08 04:29:41;;;;;;;;;;;27.60;99.90;;;;;;5038246;28;20379;-59
2022/10/08 04:32:07;;;;;;;;;;;27.60;99.90;;;;;;5038011;28;20390;-59
2022/10/08 04:34:32;;;;;;;;;;;27.60;99.90;;;;;;5037944;28;19905;-58
2022/10/08 04:36:58;;;;;;;;;;;27.50;99.90;;;;;;5037848;28;20327;-58
2022/10/08 04:39:24;;;;;;;;;;;27.60;99.90;;;;;;5037868;28;20530;-58
2022/10/08 04:41:49;;;;;;;;;;;27.50;99.90;;;;;;5037729;28;19992;-57
2022/10/08 04:44:15;;;;;;;;;;;27.50;99.90;;;;;;5037943;28;19912;-58
2022/10/08 04:46:40;;;;;;;;;;;27.50;99.90;;;;;;5037731;28;19947;-58
2022/10/08 04:49:06;;;;;;;;;;;27.50;99.90;;;;;;5037907;28;19988;-59
2022/10/08 04:51:31;;;;;;;;;;;27.50;99.90;;;;;;5037459;28;19913;-56
2022/10/08 04:53:57;;;;;;;;;;;27.50;99.90;;;;;;5037583;28;19909;-57
2022/10/08 04:56:24;;;;;;;;;;;27.50;99.90;;;;;;5037862;28;19992;-57
2022/10/08 04:58:50;;;;;;;;;;;27.50;99.90;;;;;;5037859;28;20274;-58
2022/10/08 05:01:19;;;;;;;;;;;27.50;99.90;;;;;;5037729;28;19917;-58
2022/10/08 05:03:46;;;;;;;;;;;27.40;99.90;;;;;;5037812;28;20265;-58
2022/10/08 05:06:13;;;;;;;;;;;27.50;99.90;;;;;;5034779;28;19912;-57
2022/10/08 05:08:39;;;;;;;;;;;27.40;99.90;;;;;;5034585;28;20456;-57
2022/10/08 05:11:05;;;;;;;;;;;27.40;99.90;;;;;;5034486;28;20007;-58
2022/10/08 05:13:30;;;;;;;;;;;27.40;99.90;;;;;;5034668;28;19905;-59
2022/10/08 05:16:01;;;;;;;;;;;27.40;99.90;;;;;;5034376;28;19911;-59
2022/10/08 05:18:26;;;;;;;;;;;27.40;99.90;;;;;;5034366;28;19981;-58
2022/10/08 05:20:52;;;;;;;;;;;27.40;99.90;;;;;;5049792;28;19952;-57
2022/10/08 05:23:17;;;;;;;;;;;27.40;99.90;;;;;;5034576;28;19929;-58
2022/10/08 05:25:43;;;;;;;;;;;27.40;99.90;;;;;;5034448;28;19912;-58
2022/10/08 05:28:08;;;;;;;;;;;27.40;99.90;;;;;;5034180;28;20368;-57
2022/10/08 05:30:34;;;;;;;;;;;27.40;99.90;;;;;;5034253;28;20011;-58
2022/10/08 05:33:00;;;;;;;;;;;27.40;99.90;;;;;;5034188;28;19909;-59
2022/10/08 05:35:26;;;;;;;;;;;27.30;99.90;;;;;;5034098;28;19917;-60
2022/10/08 05:37:51;;;;;;;;;;;27.40;99.90;;;;;;5034055;28;19905;-59
2022/10/08 05:40:17;;;;;;;;;;;27.40;99.90;;;;;;5034131;28;19912;-58
2022/10/08 05:42:42;;;;;;;;;;;27.30;99.90;;;;;;5033820;28;19905;-58
2022/10/08 05:45:08;;;;;;;;;;;27.30;99.90;;;;;;5033876;28;19905;-58
2022/10/08 05:47:34;;;;;;;;;;;27.30;99.90;;;;;;5034072;28;19913;-59
2022/10/08 05:49:59;;;;;;;;;;;27.30;99.90;;;;;;5032027;28;19964;-59
2022/10/08 05:52:26;;;;;;;;;;;27.30;99.90;;;;;;5033741;28;19905;-58
2022/10/08 05:54:51;;;;;;;;;;;27.30;99.90;;;;;;5033630;28;19986;-58
2022/10/08 05:57:17;;;;;;;;;;;27.30;99.90;;;;;;5033880;28;20376;-59
2022/10/08 05:59:42;;;;;;;;;;;27.30;99.90;;;;;;5033414;28;19924;-58
2022/10/08 06:02:09;;;;;;;;;;;27.30;99.90;;;;;;5033556;28;19963;-58
2022/10/08 06:04:34;;;;;;;;;;;27.30;99.90;;;;;;5033337;28;19905;-59
2022/10/08 06:07:00;;;;;;;;;;;27.30;99.90;;;;;;5048296;28;19959;-60
2022/10/08 06:09:26;;;;;;;;;;;27.30;99.90;;;;;;5033397;28;19909;-58
2022/10/08 06:11:51;;;;;;;;;;;27.30;99.90;;;;;;5033582;28;19959;-57
2022/10/08 06:14:19;;;;;;;;;;;27.20;99.90;;;;;;5033581;28;19992;-57
2022/10/08 06:16:45;;;;;;;;;;;27.20;99.90;;;;;;5032893;28;19905;-57
2022/10/08 06:19:10;;;;;;;;;;;27.20;99.90;;;;;;5033396;28;19940;-57
2022/10/08 06:21:36;;;;;;;;;;;27.20;99.90;;;;;;5033025;28;19952;-60
2022/10/08 06:24:03;;;;;;;;;;;27.20;99.90;;;;;;5033014;28;20435;-57
2022/10/08 06:26:31;;;;;;;;;;;27.20;99.90;;;;;;5033237;28;19967;-58
2022/10/08 06:28:56;;;;;;;;;;;27.20;99.90;;;;;;5033023;28;19909;-59
2022/10/08 06:31:22;;;;;;;;;;;27.20;99.90;;;;;;5033051;28;19975;-57
2022/10/08 06:33:48;;;;;;;;;;;27.20;99.90;;;;;;5033345;28;19962;-58
2022/10/08 06:36:18;;;;;;;;;;;27.20;99.90;;;;;;5048208;28;20416;-57
2022/10/08 06:38:50;;;;;;;;;;;27.10;99.90;;;;;;5032878;28;19916;-58
2022/10/08 06:41:16;;;;;;;;;;;27.20;99.90;;;;;;5032936;28;19905;-58
2022/10/08 06:43:42;;;;;;;;;;;27.10;99.90;;;;;;5032749;28;19991;-57
2022/10/08 06:46:08;;;;;;;;;;;27.10;99.90;;;;;;5032663;28;19909;-57
2022/10/08 06:48:33;;;;;;;;;;;27.10;99.90;;;;;;5032726;28;19909;-56
2022/10/08 06:51:00;;;;;;;;;;;27.20;99.90;;;;;;5032565;28;19913;-57
2022/10/08 06:53:26;;;;;;;;;;;27.10;99.90;;;;;;5032557;28;19905;-58
2022/10/08 06:55:59;;;;;;;;;;;27.10;99.90;;;;;;5032727;28;19989;-57
2022/10/08 06:58:25;;;;;;;;;;;27.10;99.90;;;;;;5032553;28;19984;-58
2022/10/08 07:01:04;;;;;;;;;;;27.10;99.90;;;;;;5032715;28;19939;-58
2022/10/08 07:03:29;;;;;;;;;;;27.10;99.90;;;;;;5032314;28;19913;-58
2022/10/08 07:05:58;;;;;;;;;;;27.10;99.90;;;;;;5032501;28;19905;-57
2022/10/08 07:08:23;;;;;;;;;;;27.10;99.90;;;;;;5032467;28;19948;-58
2022/10/08 07:10:50;;;;;;;;;;;27.10;99.90;;;;;;5032248;28;20395;-57
2022/10/08 07:13:15;;;;;;;;;;;27.10;99.90;;;;;;5032217;28;19909;-57
2022/10/08 07:15:41;;;;;;;;;;;27.10;99.90;;;;;;5032093;28;19912;-57
2022/10/08 07:18:10;;;;;;;;;;;27.10;99.90;;;;;;5032243;28;19912;-55
2022/10/08 07:20:36;;;;;;;;;;;27.10;99.90;;;;;;5032059;28;19951;-58
2022/10/08 07:23:01;;;;;;;;;;;27.10;99.90;;;;;;5032077;28;20317;-57
2022/10/08 07:25:27;;;;;;;;;;;27.10;99.90;;;;;;5031992;28;19905;-58
2022/10/08 07:27:52;;;;;;;;;;;27.10;99.90;;;;;;5032174;28;19905;-57
2022/10/08 07:30:18;;;;;;;;;;;27.20;99.90;;;;;;5046653;28;19923;-57
2022/10/08 07:32:44;;;;;;;;;;;27.20;99.90;;;;;;5031963;28;20425;-58
2022/10/08 07:35:09;;;;;;;;;;;27.20;99.90;;;;;;5032100;28;19905;-58
2022/10/08 07:37:35;;;;;;;;;;;27.30;99.90;;;;;;5031961;28;20348;-57
2022/10/08 07:40:00;;;;;;;;;;;27.20;99.90;;;;;;5030754;28;19984;-57
2022/10/08 07:42:26;;;;;;;;;;;27.20;99.90;;;;;;5032026;28;19928;-57
2022/10/08 07:44:51;;;;;;;;;;;27.30;99.90;;;;;;5031915;28;19905;-57
2022/10/08 07:47:17;;;;;;;;;;;27.30;99.90;;;;;;5031835;28;20329;-58
2022/10/08 07:49:43;;;;;;;;;;;27.30;99.90;;;;;;5031453;28;20000;-58
2022/10/08 07:52:08;;;;;;;;;;;27.30;99.90;;;;;;5031649;28;19948;-57
2022/10/08 07:54:34;;;;;;;;;;;27.30;99.90;;;;;;5031705;28;19952;-57
2022/10/08 07:57:01;;;;;;;;;;;27.30;99.90;;;;;;5031629;28;19927;-59
2022/10/08 07:59:27;;;;;;;;;;;27.30;99.90;;;;;;5031542;28;19912;-57
2022/10/08 08:01:53;;;;;;;;;;;27.40;99.90;;;;;;5031923;28;20431;-57
2022/10/08 08:04:18;;;;;;;;;;;27.40;99.90;;;;;;5031561;28;19913;-57
2022/10/08 08:06:48;;;;;;;;;;;27.40;99.90;;;;;;5031530;28;19906;-58
2022/10/08 08:09:15;;;;;;;;;;;27.40;99.90;;;;;;5031644;28;19905;-57
2022/10/08 08:11:40;;;;;;;;;;;27.40;99.90;;;;;;5030066;28;19913;-57
2022/10/08 08:14:06;;;;;;;;;;;27.40;99.90;;;;;;5030257;28;19912;-58
2022/10/08 08:16:32;;;;;;;;;;;27.40;99.90;;;;;;5031399;28;20412;-58
2022/10/08 08:18:59;;;;;;;;;;;27.50;99.90;;;;;;5031598;28;19981;-58
2022/10/08 08:21:26;;;;;;;;;;;27.50;99.90;;;;;;5031581;28;19905;-57
2022/10/08 08:23:52;;;;;;;;;;;27.50;99.90;;;;;;5031401;28;20379;-57
2022/10/08 08:26:20;;;;;;;;;;;27.50;99.90;;;;;;5030107;28;19967;-58
2022/10/08 08:28:50;;;;;;;;;;;27.50;99.90;;;;;;5031429;28;20384;-57
2022/10/08 08:31:17;;;;;;;;;;;27.50;99.90;;;;;;5031253;28;19967;-57
2022/10/08 08:33:46;;;;;;;;;;;27.50;99.90;;;;;;5031340;28;19912;-57
2022/10/08 08:36:11;;;;;;;;;;;27.50;99.90;;;;;;5031004;28;19905;-58
2022/10/08 08:38:37;;;;;;;;;;;27.50;99.90;;;;;;5031014;28;19912;-57
2022/10/08 08:41:06;;;;;;;;;;;27.60;99.90;;;;;;5032145;28;20008;-57
2022/10/08 08:43:32;;;;;;;;;;;27.60;99.90;;;;;;5034956;28;19916;-57
2022/10/08 08:45:58;;;;;;;;;;;27.60;99.90;;;;;;5035192;28;19908;-57
2022/10/08 08:48:25;;;;;;;;;;;27.60;99.90;;;;;;5034851;28;20229;-58
2022/10/08 08:50:55;;;;;;;;;;;27.60;99.90;;;;;;5034653;28;19943;-57
2022/10/08 08:53:21;;;;;;;;;;;27.60;99.90;;;;;;5034923;28;19909;-57
2022/10/08 08:55:49;;;;;;;;;;;27.60;99.90;;;;;;5034800;28;19952;-57
2022/10/08 08:58:39;;;;;;;;;;;27.70;99.90;;;;;;5034681;28;19905;-58
2022/10/08 09:01:07;;;;;;;;;;;27.70;99.90;;;;;;5034790;28;19917;-58
2022/10/08 09:03:38;;;;;;;;;;;27.70;99.90;;;;;;5034542;28;19968;-57
2022/10/08 09:06:08;;;;;;;;;;;27.70;99.90;;;;;;5034444;28;19901;-57
2022/10/08 09:08:40;;;;;;;;;;;27.70;99.90;;;;;;5034612;28;19912;-58
2022/10/08 09:11:05;;;;;;;;;;;27.70;99.90;;;;;;5049843;28;20353;-58
2022/10/08 09:13:37;;;;;;;;;;;27.80;99.90;;;;;;5034494;28;19912;-57
2022/10/08 09:16:03;;;;;;;;;;;27.80;99.90;;;;;;5034345;28;20258;-57
2022/10/08 09:18:29;;;;;;;;;;;27.80;99.90;;;;;;5034377;28;19913;-58
2022/10/08 09:20:54;;;;;;;;;;;27.80;99.90;;;;;;5034120;28;19906;-57
2022/10/08 09:23:21;;;;;;;;;;;27.80;99.90;;;;;;5032821;28;19905;-57
2022/10/08 09:25:59;;;;;;;;;;;27.80;99.90;;;;;;5034102;28;19980;-57
2022/10/08 09:28:38;;;;;;;;;;;27.80;99.90;;;;;;5032545;28;19980;-57
2022/10/08 09:31:11;;;;;;;;;;;27.80;99.90;;;;;;5033878;28;19913;-58
2022/10/08 09:33:38;;;;;;;;;;;27.90;99.90;;;;;;5034095;28;19948;-58
2022/10/08 09:36:03;;;;;;;;;;;27.90;99.90;;;;;;5033874;28;19905;-58
2022/10/08 09:38:33;;;;;;;;;;;27.90;99.90;;;;;;5034037;28;19913;-58
2022/10/08 09:41:01;;;;;;;;;;;27.90;99.90;;;;;;5034041;28;19913;-58
2022/10/08 09:43:28;;;;;;;;;;;27.90;99.90;;;;;;5033869;28;19905;-59
2022/10/08 09:45:54;;;;;;;;;;;27.90;99.90;;;;;;5033969;28;19963;-63
2022/10/08 09:48:24;;;;;;;;;;;28.00;99.90;;;;;;5033654;28;19913;-59
2022/10/08 09:50:49;;;;;;;;;;;28.00;99.90;;;;;;5033583;28;20115;-59
2022/10/08 09:53:15;;;;;;;;;;;28.00;99.90;;;;;;5033209;28;19940;-59
2022/10/08 09:55:47;;;;;;;;;;;28.00;99.90;;;;;;5032403;28;19905;-58
2022/10/08 09:58:15;;;;;;;;;;;28.00;99.90;;;;;;5033598;28;19905;-59
2022/10/08 10:00:40;;;;;;;;;;;28.00;99.90;;;;;;5033376;28;19920;-58
2022/10/08 10:03:14;;;;;;;;;;;28.00;99.90;;;;;;5032343;28;19919;-58
2022/10/08 10:05:40;;;;;;;;;;;28.10;99.90;;;;;;5033195;28;19987;-58
2022/10/08 10:08:06;;;;;;;;;;;28.20;99.90;;;;;;5033280;28;20004;-58
2022/10/08 10:10:37;;;;;;;;;;;28.10;99.90;;;;;;5033317;28;19955;-59
2022/10/08 10:13:09;;;;;;;;;;;28.20;99.90;;;;;;5033710;28;19912;-59
2022/10/08 10:15:42;;;;;;;;;;;28.20;99.90;;;;;;5033140;28;19911;-58
2022/10/08 10:18:10;;;;;;;;;;;28.20;99.90;;;;;;5033054;28;19905;-57
2022/10/08 10:20:40;;;;;;;;;;;28.20;99.90;;;;;;5032120;28;20269;-58
2022/10/08 10:23:23;;;;;;;;;;;28.30;99.90;;;;;;5033021;28;19909;-58
2022/10/08 10:25:51;;;;;;;;;;;28.30;99.90;;;;;;5033076;28;19909;-59
2022/10/08 10:28:27;;;;;;;;;;;28.30;99.90;;;;;;5032972;28;19911;-58
2022/10/08 10:31:13;;;;;;;;;;;28.30;99.90;;;;;;5032616;28;19966;-58
2022/10/08 10:33:46;;;;;;;;;;;28.40;99.90;;;;;;5032641;28;19913;-58
2022/10/08 10:36:13;;;;;;;;;;;28.40;99.90;;;;;;5032770;28;19913;-58
2022/10/08 10:39:02;;;;;;;;;;;28.40;99.90;;;;;;5032706;28;19932;-58
2022/10/08 10:41:46;;;;;;;;;;;28.50;99.90;;;;;;5022328;28;19911;-58
2022/10/08 10:44:13;;;;;;;;;;;28.50;99.90;;;;;;5032667;28;20284;-57
2022/10/08 10:46:38;;;;;;;;;;;28.50;99.90;;;;;;5032627;28;19948;-58
2022/10/08 10:49:13;;;;;;;;;;;28.50;99.90;;;;;;5033062;28;19905;-58
2022/10/08 10:51:57;;;;;;;;;;;28.60;99.90;;;;;;5032356;28;19913;-58
2022/10/08 10:54:35;;;;;;;;;;;28.60;99.90;;;;;;5032574;28;19912;-57
2022/10/08 10:57:03;;;;;;;;;;;28.60;99.90;;;;;;5032243;28;19911;-58
2022/10/08 10:59:32;;;;;;;;;;;28.60;99.90;;;;;;5032050;28;20075;-57
2022/10/08 11:02:04;;;;;;;;;;;28.70;99.90;;;;;;5032045;28;19909;-57
2022/10/08 11:04:59;;;;;;;;;;;28.70;99.90;;;;;;5031261;28;19909;-58
2022/10/08 11:07:34;;;;;;;;;;;28.70;99.90;;;;;;5027016;28;20341;-57
2022/10/08 11:10:05;;;;;;;;;;;28.70;99.90;;;;;;5032135;28;19967;-58
2022/10/08 11:12:41;;;;;;;;;;;28.80;99.90;;;;;;5032279;28;19931;-58
2022/10/08 11:15:06;;;;;;;;;;;28.80;99.90;;;;;;5032143;28;19905;-58
2022/10/08 11:17:44;;;;;;;;;;;28.80;99.90;;;;;;5031993;28;19907;-60
2022/10/08 11:20:09;;;;;;;;;;;28.80;99.90;;;;;;5031739;28;20356;-58
2022/10/08 11:22:58;;;;;;;;;;;28.80;99.90;;;;;;5032029;28;19955;-58
2022/10/08 11:25:41;;;;;;;;;;;28.90;99.90;;;;;;5031779;28;19912;-57
2022/10/08 11:28:25;;;;;;;;;;;28.90;99.90;;;;;;5031854;28;19905;-58
2022/10/08 11:30:56;;;;;;;;;;;28.90;99.90;;;;;;5031772;28;20360;-58
2022/10/08 11:33:22;;;;;;;;;;;29.00;99.90;;;;;;5031833;28;19912;-58
2022/10/08 11:35:48;;;;;;;;;;;28.90;99.90;;;;;;5030515;28;19909;-58
2022/10/08 11:38:28;;;;;;;;;;;29.00;99.90;;;;;;5031643;28;20066;-58
2022/10/08 11:40:54;;;;;;;;;;;29.00;99.90;;;;;;5031651;28;20006;-59
2022/10/08 11:43:38;;;;;;;;;;;29.00;99.90;;;;;;5031713;28;19909;-58
2022/10/08 11:46:21;;;;;;;;;;;29.00;99.90;;;;;;5031788;28;19905;-58
2022/10/08 11:48:48;;;;;;;;;;;29.10;99.90;;;;;;5031728;28;19909;-58
2022/10/08 11:51:19;;;;;;;;;;;29.10;99.90;;;;;;5031275;28;19913;-58
2022/10/08 11:54:11;;;;;;;;;;;29.10;99.90;;;;;;5031563;28;19905;-58
2022/10/08 11:56:38;;;;;;;;;;;29.10;99.90;;;;;;5031742;28;19909;-57
2022/10/08 11:59:23;;;;;;;;;;;29.20;99.90;;;;;;5031746;28;19905;-57
2022/10/08 12:01:54;;;;;;;;;;;29.20;99.90;;;;;;5030261;28;19952;-58
2022/10/08 12:04:26;;;;;;;;;;;29.20;99.90;;;;;;5031489;28;19963;-58
2022/10/08 12:07:00;;;;;;;;;;;29.20;99.90;;;;;;5030156;28;19912;-58
2022/10/08 12:09:35;;;;;;;;;;;29.20;99.90;;;;;;5031499;28;19948;-58
2022/10/08 12:12:11;;;;;;;;;;;29.30;99.90;;;;;;5031286;28;19923;-58
2022/10/08 12:14:43;;;;;;;;;;;29.30;99.90;;;;;;5031917;28;19951;-58
2022/10/08 12:17:09;;;;;;;;;;;29.30;99.90;;;;;;5035541;28;19959;-58
2022/10/08 12:19:38;;;;;;;;;;;29.40;99.90;;;;;;5035401;28;19912;-57
2022/10/08 12:22:24;;;;;;;;;;;29.30;99.90;;;;;;5050703;28;20356;-58
2022/10/08 12:24:59;;;;;;;;;;;29.40;99.90;;;;;;5023819;28;19913;-58
2022/10/08 12:27:27;;;;;;;;;;;29.40;99.90;;;;;;5035200;28;19909;-58
2022/10/08 12:29:58;;;;;;;;;;;29.40;99.90;;;;;;5035150;28;20361;-58
2022/10/08 12:32:31;;;;;;;;;;;29.40;99.90;;;;;;5035193;28;19912;-58
2022/10/08 12:34:58;;;;;;;;;;;29.50;99.90;;;;;;5035093;28;19987;-57
2022/10/08 12:37:32;;;;;;;;;;;29.50;99.90;;;;;;5034850;28;20008;-58
2022/10/08 12:40:00;;;;;;;;;;;29.50;99.90;;;;;;5035156;28;19931;-58
2022/10/08 12:42:29;;;;;;;;;;;29.60;99.90;;;;;;5035038;28;19909;-57
2022/10/08 12:45:07;;;;;;;;;;;29.60;99.90;;;;;;5034874;28;19911;-57
2022/10/08 12:47:51;;;;;;;;;;;29.60;99.90;;;;;;5034992;28;19944;-58
2022/10/08 12:50:29;;;;;;;;;;;29.60;99.90;;;;;;5034798;28;19981;-57
2022/10/08 12:52:58;;;;;;;;;;;29.60;99.90;;;;;;5034801;28;20345;-59
2022/10/08 12:55:24;;;;;;;;;;;29.60;99.90;;;;;;5033644;28;19951;-59
2022/10/08 12:57:50;;;;;;;;;;;29.70;99.90;;;;;;5034860;28;19908;-59
2022/10/08 13:00:19;;;;;;;;;;;29.70;99.90;;;;;;5034436;28;19921;-59
2022/10/08 13:02:56;;;;;;;;;;;29.70;99.90;;;;;;5034581;28;19905;-58
2022/10/08 13:05:22;;;;;;;;;;;29.70;99.90;;;;;;5034619;28;19905;-59
2022/10/08 13:07:48;;;;;;;;;;;29.80;99.90;;;;;;5034493;28;20474;-58
2022/10/08 13:10:18;;;;;;;;;;;29.80;99.90;;;;;;5034603;28;19931;-58
2022/10/08 13:12:56;;;;;;;;;;;29.80;99.90;;;;;;5034699;28;19912;-59
2022/10/08 13:15:24;;;;;;;;;;;29.80;99.90;;;;;;5034469;28;20513;-58
2022/10/08 13:17:50;;;;;;;;;;;29.80;99.90;;;;;;5034425;28;19913;-58
2022/10/08 13:20:18;;;;;;;;;;;29.90;99.90;;;;;;5034385;28;19909;-59
2022/10/08 13:22:44;;;;;;;;;;;29.90;99.90;;;;;;5034635;28;19974;-60
2022/10/08 13:25:28;;;;;;;;;;;29.90;99.90;;;;;;5034375;28;20422;-58
2022/10/08 13:28:07;;;;;;;;;;;29.90;99.90;;;;;;5033407;28;19955;-59
2022/10/08 13:30:32;;;;;;;;;;;29.90;99.90;;;;;;5034177;28;19986;-59
2022/10/08 13:33:02;;;;;;;;;;;29.90;99.90;;;;;;5034119;28;19908;-58
2022/10/08 13:35:28;;;;;;;;;;;30.00;99.90;;;;;;5034083;28;20271;-59
2022/10/08 13:37:54;;;;;;;;;;;30.00;99.90;;;;;;5034096;28;19996;-59
2022/10/08 13:40:21;;;;;;;;;;;30.00;99.90;;;;;;5033959;28;20323;-59
2022/10/08 13:42:48;;;;;;;;;;;30.00;99.90;;;;;;5033996;28;19905;-59
2022/10/08 13:45:24;;;;;;;;;;;30.00;99.90;;;;;;5034174;28;19927;-58
2022/10/08 13:47:50;;;;;;;;;;;30.00;99.90;;;;;;5033926;28;19905;-59
2022/10/08 13:50:16;;;;;;;;;;;30.10;99.90;;;;;;5033864;28;20361;-59
2022/10/08 13:52:43;;;;;;;;;;;30.10;99.90;;;;;;5032549;28;19928;-59
2022/10/08 13:55:19;;;;;;;;;;;30.10;99.90;;;;;;5033642;28;19905;-58
2022/10/08 13:57:45;;;;;;;;;;;30.10;99.90;;;;;;5034019;28;19908;-59
2022/10/08 14:00:14;;;;;;;;;;;30.10;99.90;;;;;;5033658;28;19916;-59
2022/10/08 14:02:39;;;;;;;;;;;30.20;99.90;;;;;;5033571;28;19951;-59
2022/10/08 14:05:05;;;;;;;;;;;30.20;99.90;;;;;;5033509;28;20328;-59
2022/10/08 14:07:32;;;;;;;;;;;30.20;99.90;;;;;;5033404;28;19911;-59
2022/10/08 14:10:01;;;;;;;;;;;30.20;99.90;;;;;;5033374;28;19915;-60
2022/10/08 14:12:29;;;;;;;;;;;30.30;99.90;;;;;;5033277;28;19908;-59
2022/10/08 14:14:55;;;;;;;;;;;30.30;99.90;;;;;;5033200;28;20016;-59
2022/10/08 14:17:21;;;;;;;;;;;30.30;99.90;;;;;;5033313;28;20448;-60
2022/10/08 14:19:47;;;;;;;;;;;30.30;99.90;;;;;;5033332;28;19905;-58
2022/10/08 14:22:12;;;;;;;;;;;30.40;99.90;;;;;;5032134;28;19905;-59
2022/10/08 14:24:38;;;;;;;;;;;30.40;99.90;;;;;;5033199;28;19912;-59
2022/10/08 14:27:04;;;;;;;;;;;30.40;99.90;;;;;;5031817;28;19967;-59